sensor_id;sensor_type;location;lat;lon;timestamp;pressure;altitude;pressure_sealevel;temperature;humidity
58973;BME280;44750;52.040;7.472;2023-08-06T00:01:47;100389.47;;;15.19;0.00
58973;BME280;44750;52.040;7.472;2023-08-06T00:06:47;100415.66;;;15.20;0.00
58973;BME280;44750;52.040;7.472;2023-08-06T00:11:48;100417.09;;;15.16;0.00
58973;BME280;44750;52.040;7.472;2023-08-06T00:16:48;100415.16;;;15.10;0.00
58973;BME280;44750;52.040;7.472;2023-08-06T00:21:48;100423.03;;;15.05;0.00
58973;BME280;44750;52.040;7.472;2023-08-06T00:26:48;100430.25;;;14.98;0.00
58973;BME280;44750;52.040;7.472;2023-08-06T00:31:49;100453.97;;;14.97;0.00
58973;BME280;44750;52.040;7.472;2023-08-06T00:36:49;100471.34;;;14.96;0.00
58973;BME280;44750;52.040;7.472;2023-08-06T00:41:50;100510.56;;;15.10;0.00
58973;BME280;44750;52.040;7.472;2023-08-06T00:46:50;100539.59;;;15.18;0.00
58973;BME280;44750;52.040;7.472;2023-08-06T00:51:50;100537.91;;;15.17;0.00
58973;BME280;44750;52.040;7.472;2023-08-06T00:56:51;100543.53;;;15.15;0.00
58973;BME280;44750;52.040;7.472;2023-08-06T01:01:52;100569.88;;;15.23;0.00
58973;BME280;44750;52.040;7.472;2023-08-06T01:12:06;100569.88;;;15.23;0.00
58973;BME280;44750;52.040;7.472;2023-08-06T01:17:10;100559.44;;;15.12;0.00
58973;BME280;44750;52.040;7.472;2023-08-06T01:22:14;100564.69;;;15.13;0.00
58973;BME280;44750;52.040;7.472;2023-08-06T01:27:28;100569.47;;;15.11;0.00
58973;BME280;44750;52.040;7.472;2023-08-06T01:32:34;100574.63;;;15.06;0.00
58973;BME280;44750;52.040;7.472;2023-08-06T01:37:35;100586.22;;;15.08;0.00
58973;BME280;44750;52.040;7.472;2023-08-06T01:42:36;100590.34;;;15.04;0.00
58973;BME280;44750;52.040;7.472;2023-08-06T01:47:36;100603.16;;;15.03;0.00
58973;BME280;44750;52.040;7.472;2023-08-06T01:52:36;100617.22;;;15.07;0.00
58973;BME280;44750;52.040;7.472;2023-08-06T01:57:37;100624.09;;;15.03;0.00
58973;BME280;44750;52.040;7.472;2023-08-06T02:02:37;100628.31;;;15.05;0.00
58973;BME280;44750;52.040;7.472;2023-08-06T02:07:37;100638.00;;;15.08;0.00
58973;BME280;44750;52.040;7.472;2023-08-06T02:12:37;100642.72;;;15.14;0.00
58973;BME280;44750;52.040;7.472;2023-08-06T02:17:38;100632.06;;;15.04;0.00
58973;BME280;44750;52.040;7.472;2023-08-06T02:22:38;100637.34;;;15.06;0.00
58973;BME280;44750;52.040;7.472;2023-08-06T02:27:38;100659.44;;;15.11;0.00
58973;BME280;44750;52.040;7.472;2023-08-06T02:32:38;100659.44;;;15.11;0.00
58973;BME280;44750;52.040;7.472;2023-08-06T02:37:38;100650.63;;;15.09;0.00
58973;BME280;44750;52.040;7.472;2023-08-06T02:42:39;100634.88;;;14.96;0.00
58973;BME280;44750;52.040;7.472;2023-08-06T02:47:39;100653.03;;;15.04;0.00
58973;BME280;44750;52.040;7.472;2023-08-06T02:52:39;100663.88;;;15.12;0.00
58973;BME280;44750;52.040;7.472;2023-08-06T02:57:39;100670.34;;;15.11;0.00
58973;BME280;44750;52.040;7.472;2023-08-06T03:02:39;100680.91;;;15.14;0.00
58973;BME280;44750;52.040;7.472;2023-08-06T03:07:40;100681.25;;;15.11;0.00
58973;BME280;44750;52.040;7.472;2023-08-06T03:12:40;100678.53;;;15.11;0.00
58973;BME280;44750;52.040;7.472;2023-08-06T03:17:40;100678.06;;;15.08;0.00
58973;BME280;44750;52.040;7.472;2023-08-06T03:22:41;100679.47;;;15.03;0.00
58973;BME280;44750;52.040;7.472;2023-08-06T03:27:41;100679.94;;;15.07;0.00
58973;BME280;44750;52.040;7.472;2023-08-06T03:32:41;100685.38;;;15.07;0.00
58973;BME280;44750;52.040;7.472;2023-08-06T03:37:41;100675.03;;;15.02;0.00
58973;BME280;44750;52.040;7.472;2023-08-06T03:42:42;100673.53;;;15.00;0.00
58973;BME280;44750;52.040;7.472;2023-08-06T03:47:42;100657.59;;;14.88;0.00
58973;BME280;44750;52.040;7.472;2023-08-06T03:52:42;100679.50;;;14.95;0.00
58973;BME280;44750;52.040;7.472;2023-08-06T03:57:42;100698.19;;;15.07;0.00
58973;BME280;44750;52.040;7.472;2023-08-06T04:02:43;100701.75;;;15.07;0.00
58973;BME280;44750;52.040;7.472;2023-08-06T04:07:43;100704.75;;;15.12;0.00
58973;BME280;44750;52.040;7.472;2023-08-06T04:12:43;100704.84;;;15.04;0.00
58973;BME280;44750;52.040;7.472;2023-08-06T04:17:43;100717.06;;;15.08;0.00
58973;BME280;44750;52.040;7.472;2023-08-06T04:22:44;100724.22;;;15.09;0.00
58973;BME280;44750;52.040;7.472;2023-08-06T04:27:44;100718.69;;;15.17;0.00
58973;BME280;44750;52.040;7.472;2023-08-06T04:32:44;100724.66;;;15.21;0.00
58973;BME280;44750;52.040;7.472;2023-08-06T04:37:44;100741.03;;;15.36;0.00
58973;BME280;44750;52.040;7.472;2023-08-06T04:42:44;100765.84;;;15.64;0.00
58973;BME280;44750;52.040;7.472;2023-08-06T04:47:45;100735.72;;;15.58;0.00
58973;BME280;44750;52.040;7.472;2023-08-06T04:52:45;100750.25;;;15.73;0.00
58973;BME280;44750;52.040;7.472;2023-08-06T04:57:45;100708.63;;;15.71;0.00
58973;BME280;44750;52.040;7.472;2023-08-06T05:02:45;100699.81;;;15.69;0.00
58973;BME280;44750;52.040;7.472;2023-08-06T05:07:48;100716.22;;;15.84;0.00
58973;BME280;44750;52.040;7.472;2023-08-06T05:12:49;100758.28;;;16.34;0.00
58973;BME280;44750;52.040;7.472;2023-08-06T05:17:49;100697.44;;;16.26;0.00
58973;BME280;44750;52.040;7.472;2023-08-06T05:22:49;100616.63;;;15.95;0.00
58973;BME280;44750;52.040;7.472;2023-08-06T05:27:50;100587.16;;;15.75;0.00
58973;BME280;44750;52.040;7.472;2023-08-06T05:32:50;100603.84;;;15.80;0.00
58973;BME280;44750;52.040;7.472;2023-08-06T05:37:50;100616.34;;;15.90;0.00
58973;BME280;44750;52.040;7.472;2023-08-06T05:42:54;100631.03;;;16.03;0.00
58973;BME280;44750;52.040;7.472;2023-08-06T05:47:54;100632.84;;;16.18;0.00
58973;BME280;44750;52.040;7.472;2023-08-06T05:52:55;100648.69;;;16.44;0.00
58973;BME280;44750;52.040;7.472;2023-08-06T05:57:55;100624.56;;;16.48;0.00
58973;BME280;44750;52.040;7.472;2023-08-06T06:02:55;100621.31;;;16.59;0.00
58973;BME280;44750;52.040;7.472;2023-08-06T06:07:55;100623.88;;;16.82;0.00
58973;BME280;44750;52.040;7.472;2023-08-06T06:12:56;100628.56;;;17.10;0.00
58973;BME280;44750;52.040;7.472;2023-08-06T06:17:56;100582.47;;;17.14;0.00
58973;BME280;44750;52.040;7.472;2023-08-06T06:22:56;100576.59;;;17.45;0.00
58973;BME280;44750;52.040;7.472;2023-08-06T06:27:57;100502.22;;;17.35;0.00
58973;BME280;44750;52.040;7.472;2023-08-06T06:32:57;100471.59;;;17.53;0.00
58973;BME280;44750;52.040;7.472;2023-08-06T06:37:57;100399.78;;;17.44;0.00
58973;BME280;44750;52.040;7.472;2023-08-06T06:42:57;100458.06;;;18.27;0.00
58973;BME280;44750;52.040;7.472;2023-08-06T06:47:58;100351.44;;;18.32;0.00
58973;BME280;44750;52.040;7.472;2023-08-06T06:52:58;100277.06;;;18.08;0.00
58973;BME280;44750;52.040;7.472;2023-08-06T06:57:58;100209.28;;;17.97;0.00
58973;BME280;44750;52.040;7.472;2023-08-06T07:02:58;100201.03;;;18.10;0.00
58973;BME280;44750;52.040;7.472;2023-08-06T07:07:59;100100.28;;;17.47;0.00
58973;BME280;44750;52.040;7.472;2023-08-06T07:12:59;100138.53;;;17.67;0.00
58973;BME280;44750;52.040;7.472;2023-08-06T07:17:59;100165.25;;;17.98;0.00
58973;BME280;44750;52.040;7.472;2023-08-06T07:23:00;100126.25;;;17.89;0.00
58973;BME280;44750;52.040;7.472;2023-08-06T07:28:00;100095.94;;;17.84;0.00
58973;BME280;44750;52.040;7.472;2023-08-06T07:33:00;100100.34;;;17.99;0.00
58973;BME280;44750;52.040;7.472;2023-08-06T07:38:01;100093.53;;;18.15;0.00
58973;BME280;44750;52.040;7.472;2023-08-06T07:43:01;100066.81;;;18.10;0.00
58973;BME280;44750;52.040;7.472;2023-08-06T07:48:02;100054.56;;;18.19;0.00
58973;BME280;44750;52.040;7.472;2023-08-06T07:53:02;100036.31;;;18.38;0.00
58973;BME280;44750;52.040;7.472;2023-08-06T07:58:03;100017.25;;;18.50;0.00
58973;BME280;44750;52.040;7.472;2023-08-06T08:03:03;100107.31;;;19.92;0.00
58973;BME280;44750;52.040;7.472;2023-08-06T08:08:03;99960.47;;;19.57;0.00
58973;BME280;44750;52.040;7.472;2023-08-06T08:13:04;99928.63;;;20.52;0.00
58973;BME280;44750;52.040;7.472;2023-08-06T08:18:04;99909.28;;;21.47;3.20
58973;BME280;44750;52.040;7.472;2023-08-06T08:23:04;99636.69;;;20.96;30.76
58973;BME280;44750;52.040;7.472;2023-08-06T08:28:05;99500.81;;;20.46;41.84
58973;BME280;44750;52.040;7.472;2023-08-06T08:33:05;99415.66;;;20.34;53.23
58973;BME280;44750;52.040;7.472;2023-08-06T08:38:05;99348.88;;;20.34;61.25
58973;BME280;44750;52.040;7.472;2023-08-06T08:43:05;99341.66;;;20.67;63.11
58973;BME280;44750;52.040;7.472;2023-08-06T08:48:06;99191.09;;;19.74;75.48
58973;BME280;44750;52.040;7.472;2023-08-06T08:53:08;99183.31;;;19.82;76.18
58973;BME280;44750;52.040;7.472;2023-08-06T08:58:08;99187.44;;;20.02;78.43
58973;BME280;44750;52.040;7.472;2023-08-06T09:03:09;99194.94;;;20.51;80.90
58973;BME280;44750;52.040;7.472;2023-08-06T09:08:11;99131.44;;;20.52;88.35
58973;BME280;44750;52.040;7.472;2023-08-06T09:13:15;99061.75;;;20.36;97.01
58973;BME280;44750;52.040;7.472;2023-08-06T09:18:25;99043.19;;;20.21;94.10
58973;BME280;44750;52.040;7.472;2023-08-06T09:23:29;99064.91;;;20.23;87.79
58973;BME280;44750;52.040;7.472;2023-08-06T09:28:37;99073.13;;;20.23;85.45
58973;BME280;44750;52.040;7.472;2023-08-06T09:33:37;99074.84;;;20.51;88.08
58973;BME280;44750;52.040;7.472;2023-08-06T09:38:39;99038.09;;;20.63;94.25
58973;BME280;44750;52.040;7.472;2023-08-06T09:43:41;98954.56;;;20.31;100.00
58973;BME280;44750;52.040;7.472;2023-08-06T09:48:45;98973.91;;;20.47;100.00
58973;BME280;44750;52.040;7.472;2023-08-06T09:53:46;98961.56;;;20.77;100.00
58973;BME280;44750;52.040;7.472;2023-08-06T09:58:48;98912.03;;;20.71;100.00
58973;BME280;44750;52.040;7.472;2023-08-06T10:03:49;98921.09;;;20.72;100.00
58973;BME280;44750;52.040;7.472;2023-08-06T10:08:50;98922.72;;;20.35;100.00
58973;BME280;44750;52.040;7.472;2023-08-06T10:13:53;98947.91;;;20.27;99.54
58973;BME280;44750;52.040;7.472;2023-08-06T10:18:57;98979.19;;;20.53;97.80
58973;BME280;44750;52.040;7.472;2023-08-06T10:23:57;98970.25;;;20.68;98.80
58973;BME280;44750;52.040;7.472;2023-08-06T10:28:57;98935.84;;;20.61;100.00
58973;BME280;44750;52.040;7.472;2023-08-06T10:33:58;98893.03;;;20.37;100.00
58973;BME280;44750;52.040;7.472;2023-08-06T10:38:58;98904.72;;;20.55;100.00
58973;BME280;44750;52.040;7.472;2023-08-06T10:44:09;98926.75;;;20.98;100.00
58973;BME280;44750;52.040;7.472;2023-08-06T10:49:10;98834.00;;;21.46;100.00
58973;BME280;44750;52.040;7.472;2023-08-06T10:54:11;98900.78;;;22.10;100.00
58973;BME280;44750;52.040;7.472;2023-08-06T10:59:15;98793.03;;;21.91;100.00
58973;BME280;44750;52.040;7.472;2023-08-06T11:04:15;98782.28;;;22.57;100.00
58973;BME280;44750;52.040;7.472;2023-08-06T11:09:15;98702.06;;;23.03;100.00
58973;BME280;44750;52.040;7.472;2023-08-06T11:14:15;98586.03;;;22.89;100.00
58973;BME280;44750;52.040;7.472;2023-08-06T11:19:16;98578.59;;;22.84;100.00
58973;BME280;44750;52.040;7.472;2023-08-06T11:24:17;98534.38;;;22.05;100.00
58973;BME280;44750;52.040;7.472;2023-08-06T11:29:17;98486.03;;;21.68;100.00
58973;BME280;44750;52.040;7.472;2023-08-06T11:34:17;98654.97;;;22.24;100.00
58973;BME280;44750;52.040;7.472;2023-08-06T11:39:17;98584.09;;;22.45;100.00
58973;BME280;44750;52.040;7.472;2023-08-06T11:44:19;98533.50;;;22.15;100.00
58973;BME280;44750;52.040;7.472;2023-08-06T11:49:19;98461.31;;;22.58;100.00
58973;BME280;44750;52.040;7.472;2023-08-06T11:54:31;98504.91;;;22.56;100.00
58973;BME280;44750;52.040;7.472;2023-08-06T11:59:31;98353.22;;;21.86;100.00
58973;BME280;44750;52.040;7.472;2023-08-06T12:04:32;98504.31;;;22.59;100.00
58973;BME280;44750;52.040;7.472;2023-08-06T12:09:50;98270.97;;;22.09;100.00
58973;BME280;44750;52.040;7.472;2023-08-06T12:14:51;98323.78;;;21.32;100.00
58973;BME280;44750;52.040;7.472;2023-08-06T12:19:51;98418.88;;;21.64;100.00
58973;BME280;44750;52.040;7.472;2023-08-06T12:24:54;98489.44;;;22.60;100.00
58973;BME280;44750;52.040;7.472;2023-08-06T12:29:54;98327.88;;;22.59;100.00
58973;BME280;44750;52.040;7.472;2023-08-06T12:34:55;98305.00;;;22.58;100.00
58973;BME280;44750;52.040;7.472;2023-08-06T12:39:55;98224.50;;;22.80;100.00
58973;BME280;44750;52.040;7.472;2023-08-06T12:44:55;98203.09;;;21.94;100.00
58973;BME280;44750;52.040;7.472;2023-08-06T12:49:56;98197.94;;;22.12;100.00
58973;BME280;44750;52.040;7.472;2023-08-06T12:54:56;98174.09;;;21.33;100.00
58973;BME280;44750;52.040;7.472;2023-08-06T12:59:56;98290.03;;;21.66;100.00
58973;BME280;44750;52.040;7.472;2023-08-06T13:04:56;98185.22;;;21.52;100.00
58973;BME280;44750;52.040;7.472;2023-08-06T13:09:57;98331.78;;;21.83;100.00
58973;BME280;44750;52.040;7.472;2023-08-06T13:14:57;98222.34;;;21.65;100.00
58973;BME280;44750;52.040;7.472;2023-08-06T13:19:57;98224.47;;;21.73;100.00
58973;BME280;44750;52.040;7.472;2023-08-06T13:24:57;98311.28;;;22.00;100.00
58973;BME280;44750;52.040;7.472;2023-08-06T13:29:57;98212.91;;;22.00;100.00
58973;BME280;44750;52.040;7.472;2023-08-06T13:34:58;98218.84;;;21.88;100.00
58973;BME280;44750;52.040;7.472;2023-08-06T13:39:58;98316.53;;;21.96;100.00
58973;BME280;44750;52.040;7.472;2023-08-06T13:44:58;98369.28;;;22.53;100.00
58973;BME280;44750;52.040;7.472;2023-08-06T13:49:58;98293.09;;;23.35;100.00
58973;BME280;44750;52.040;7.472;2023-08-06T13:54:59;98171.59;;;22.97;100.00
58973;BME280;44750;52.040;7.472;2023-08-06T13:59:59;98121.06;;;23.02;100.00
58973;BME280;44750;52.040;7.472;2023-08-06T14:04:59;98231.22;;;23.75;100.00
58973;BME280;44750;52.040;7.472;2023-08-06T14:09:59;98020.03;;;23.39;100.00
58973;BME280;44750;52.040;7.472;2023-08-06T14:15:00;98022.41;;;22.94;100.00
58973;BME280;44750;52.040;7.472;2023-08-06T14:20:00;98029.38;;;22.72;100.00
58973;BME280;44750;52.040;7.472;2023-08-06T14:25:00;98099.63;;;21.19;100.00
58973;BME280;44750;52.040;7.472;2023-08-06T14:30:01;98324.28;;;19.91;100.00
58973;BME280;44750;52.040;7.472;2023-08-06T14:35:02;98614.31;;;19.65;100.00
58973;BME280;44750;52.040;7.472;2023-08-06T14:40:02;98808.94;;;19.44;100.00
58973;BME280;44750;52.040;7.472;2023-08-06T14:45:03;98798.34;;;17.45;100.00
58973;BME280;44750;52.040;7.472;2023-08-06T14:50:04;99166.34;;;16.26;100.00
58973;BME280;44750;52.040;7.472;2023-08-06T14:55:05;99232.84;;;15.63;nan
58973;BME280;44750;52.040;7.472;2023-08-06T15:00:06;99343.66;;;15.96;nan
58973;BME280;44750;52.040;7.472;2023-08-06T15:05:07;99484.88;;;16.64;nan
58973;BME280;44750;52.040;7.472;2023-08-06T15:10:07;99541.94;;;17.04;nan
58973;BME280;44750;52.040;7.472;2023-08-06T15:15:08;99591.97;;;17.30;nan
58973;BME280;44750;52.040;7.472;2023-08-06T15:20:09;99629.16;;;17.38;nan
58973;BME280;44750;52.040;7.472;2023-08-06T15:25:09;99634.81;;;17.11;nan
58973;BME280;44750;52.040;7.472;2023-08-06T15:30:09;99680.50;;;17.11;nan
58973;BME280;44750;52.040;7.472;2023-08-06T15:35:10;99732.56;;;17.23;nan
58973;BME280;44750;52.040;7.472;2023-08-06T15:40:10;99781.63;;;17.49;nan
58973;BME280;44750;52.040;7.472;2023-08-06T15:45:11;99808.88;;;17.63;nan
58973;BME280;44750;52.040;7.472;2023-08-06T15:50:11;99817.13;;;17.56;nan
58973;BME280;44750;52.040;7.472;2023-08-06T15:55:11;99857.00;;;17.45;nan
58973;BME280;44750;52.040;7.472;2023-08-06T16:00:12;99898.41;;;17.55;nan
58973;BME280;44750;52.040;7.472;2023-08-06T16:05:12;99908.75;;;17.47;nan
58973;BME280;44750;52.040;7.472;2023-08-06T16:10:12;99938.66;;;17.42;nan
58973;BME280;44750;52.040;7.472;2023-08-06T16:15:13;99980.31;;;17.50;nan
58973;BME280;44750;52.040;7.472;2023-08-06T16:20:13;100012.56;;;17.80;nan
58973;BME280;44750;52.040;7.472;2023-08-06T16:25:13;100023.91;;;17.91;nan
58973;BME280;44750;52.040;7.472;2023-08-06T16:30:13;100029.63;;;17.82;nan
58973;BME280;44750;52.040;7.472;2023-08-06T16:35:16;100041.88;;;17.73;nan
58973;BME280;44750;52.040;7.472;2023-08-06T16:40:17;100064.41;;;17.75;nan
58973;BME280;44750;52.040;7.472;2023-08-06T16:45:17;100080.88;;;17.55;nan
58973;BME280;44750;52.040;7.472;2023-08-06T16:50:20;100062.03;;;17.13;nan
58973;BME280;44750;52.040;7.472;2023-08-06T16:55:20;100076.53;;;16.80;nan
58973;BME280;44750;52.040;7.472;2023-08-06T17:00:20;100123.41;;;16.64;nan
58973;BME280;44750;52.040;7.472;2023-08-06T17:05:21;100175.91;;;16.52;nan
58973;BME280;44750;52.040;7.472;2023-08-06T17:10:21;100219.75;;;16.37;nan
58973;BME280;44750;52.040;7.472;2023-08-06T17:15:23;100286.88;;;16.53;nan
58973;BME280;44750;52.040;7.472;2023-08-06T17:20:23;100314.53;;;16.37;nan
58973;BME280;44750;52.040;7.472;2023-08-06T17:25:23;100341.56;;;16.25;nan
58973;BME280;44750;52.040;7.472;2023-08-06T17:30:24;100374.03;;;16.13;nan
58973;BME280;44750;52.040;7.472;2023-08-06T17:35:24;100406.09;;;16.04;nan
58973;BME280;44750;52.040;7.472;2023-08-06T17:40:25;100414.75;;;15.86;nan
58973;BME280;44750;52.040;7.472;2023-08-06T17:45:26;100430.69;;;15.68;nan
58973;BME280;44750;52.040;7.472;2023-08-06T17:55:46;100485.81;;;15.78;nan
58973;BME280;44750;52.040;7.472;2023-08-06T18:00:48;100500.13;;;15.80;nan
58973;BME280;44750;52.040;7.472;2023-08-06T18:05:56;100506.88;;;15.84;nan
58973;BME280;44750;52.040;7.472;2023-08-06T18:10:57;100491.34;;;15.70;nan
58973;BME280;44750;52.040;7.472;2023-08-06T18:15:57;100529.47;;;15.78;nan
58973;BME280;44750;52.040;7.472;2023-08-06T18:20:57;100568.31;;;15.95;nan
58973;BME280;44750;52.040;7.472;2023-08-06T18:25:58;100576.34;;;15.97;nan
58973;BME280;44750;52.040;7.472;2023-08-06T18:30:58;100584.25;;;15.92;nan
58973;BME280;44750;52.040;7.472;2023-08-06T18:35:58;100615.50;;;15.89;nan
58973;BME280;44750;52.040;7.472;2023-08-06T18:40:59;100644.84;;;16.02;nan
58973;BME280;44750;52.040;7.472;2023-08-06T18:45:59;100652.03;;;15.88;nan
58973;BME280;44750;52.040;7.472;2023-08-06T18:50:59;100703.03;;;16.02;nan
58973;BME280;44750;52.040;7.472;2023-08-06T18:55:59;100697.41;;;15.89;nan
58973;BME280;44750;52.040;7.472;2023-08-06T19:01:00;100729.88;;;15.84;nan
58973;BME280;44750;52.040;7.472;2023-08-06T19:06:01;100744.34;;;15.84;nan
58973;BME280;44750;52.040;7.472;2023-08-06T19:11:02;100761.63;;;15.77;nan
58973;BME280;44750;52.040;7.472;2023-08-06T19:16:02;100761.91;;;15.67;nan
58973;BME280;44750;52.040;7.472;2023-08-06T19:21:02;100774.91;;;15.65;nan
58973;BME280;44750;52.040;7.472;2023-08-06T19:26:02;100798.03;;;15.69;nan
58973;BME280;44750;52.040;7.472;2023-08-06T19:31:03;100819.56;;;15.64;nan
58973;BME280;44750;52.040;7.472;2023-08-06T19:36:03;100846.47;;;15.67;nan
58973;BME280;44750;52.040;7.472;2023-08-06T19:41:08;100847.88;;;15.63;nan
58973;BME280;44750;52.040;7.472;2023-08-06T19:46:08;100869.22;;;15.59;nan
58973;BME280;44750;52.040;7.472;2023-08-06T19:51:08;100872.88;;;15.51;nan
58973;BME280;44750;52.040;7.472;2023-08-06T19:56:09;100876.63;;;15.50;nan
58973;BME280;44750;52.040;7.472;2023-08-06T20:01:09;100883.19;;;15.41;nan
58973;BME280;44750;52.040;7.472;2023-08-06T20:06:09;100879.47;;;15.34;nan
58973;BME280;44750;52.040;7.472;2023-08-06T20:11:10;100906.84;;;15.49;nan
58973;BME280;44750;52.040;7.472;2023-08-06T20:16:10;100902.22;;;15.49;nan
58973;BME280;44750;52.040;7.472;2023-08-06T20:21:10;100893.34;;;15.47;nan
58973;BME280;44750;52.040;7.472;2023-08-06T20:26:10;100875.34;;;15.38;nan
58973;BME280;44750;52.040;7.472;2023-08-06T20:31:11;100865.22;;;15.24;nan
58973;BME280;44750;52.040;7.472;2023-08-06T20:36:11;100865.75;;;15.19;nan
58973;BME280;44750;52.040;7.472;2023-08-06T20:41:11;100871.34;;;15.26;nan
58973;BME280;44750;52.040;7.472;2023-08-06T20:46:11;100871.03;;;15.20;nan
58973;BME280;44750;52.040;7.472;2023-08-06T20:51:11;100864.41;;;15.15;nan
58973;BME280;44750;52.040;7.472;2023-08-06T20:56:12;100877.88;;;15.16;nan
58973;BME280;44750;52.040;7.472;2023-08-06T21:01:12;100874.81;;;15.11;nan
58973;BME280;44750;52.040;7.472;2023-08-06T21:06:12;100885.03;;;15.17;nan
58973;BME280;44750;52.040;7.472;2023-08-06T21:11:12;100876.72;;;15.11;nan
58973;BME280;44750;52.040;7.472;2023-08-06T21:16:13;100892.00;;;15.20;nan
58973;BME280;44750;52.040;7.472;2023-08-06T21:21:13;100913.06;;;15.34;nan
58973;BME280;44750;52.040;7.472;2023-08-06T21:26:13;100905.22;;;15.31;nan
58973;BME280;44750;52.040;7.472;2023-08-06T21:31:13;100874.81;;;15.19;nan
58973;BME280;44750;52.040;7.472;2023-08-06T21:36:13;100898.41;;;15.27;nan
58973;BME280;44750;52.040;7.472;2023-08-06T21:41:15;100895.19;;;15.32;nan
58973;BME280;44750;52.040;7.472;2023-08-06T21:46:17;100876.13;;;15.24;nan
58973;BME280;44750;52.040;7.472;2023-08-06T21:51:19;100883.56;;;15.30;nan
58973;BME280;44750;52.040;7.472;2023-08-06T21:56:19;100880.84;;;15.30;nan
58973;BME280;44750;52.040;7.472;2023-08-06T22:01:20;100880.84;;;15.30;nan
58973;BME280;44750;52.040;7.472;2023-08-06T22:06:20;100885.59;;;15.36;nan
58973;BME280;44750;52.040;7.472;2023-08-06T22:11:20;100878.94;;;15.38;nan
58973;BME280;44750;52.040;7.472;2023-08-06T22:16:26;100870.94;;;15.37;nan
58973;BME280;44750;52.040;7.472;2023-08-06T22:21:26;100864.16;;;15.33;nan
58973;BME280;44750;52.040;7.472;2023-08-06T22:26:27;100854.25;;;15.32;nan
58973;BME280;44750;52.040;7.472;2023-08-06T22:31:27;100847.47;;;15.28;nan
58973;BME280;44750;52.040;7.472;2023-08-06T22:36:27;100846.28;;;15.30;nan
58973;BME280;44750;52.040;7.472;2023-08-06T22:41:27;100844.38;;;15.31;nan
58973;BME280;44750;52.040;7.472;2023-08-06T22:46:28;100843.75;;;15.20;nan
58973;BME280;44750;52.040;7.472;2023-08-06T22:51:28;100838.97;;;15.23;nan
58973;BME280;44750;52.040;7.472;2023-08-06T22:56:28;100832.25;;;15.10;nan
58973;BME280;44750;52.040;7.472;2023-08-06T23:01:28;100858.56;;;15.26;nan
58973;BME280;44750;52.040;7.472;2023-08-06T23:06:29;100857.06;;;15.24;nan
58973;BME280;44750;52.040;7.472;2023-08-06T23:11:29;100877.59;;;15.34;nan
58973;BME280;44750;52.040;7.472;2023-08-06T23:16:29;100871.66;;;15.31;nan
58973;BME280;44750;52.040;7.472;2023-08-06T23:21:29;100869.59;;;15.33;nan
58973;BME280;44750;52.040;7.472;2023-08-06T23:26:30;100863.47;;;15.31;nan
58973;BME280;44750;52.040;7.472;2023-08-06T23:31:30;100875.06;;;15.33;nan
58973;BME280;44750;52.040;7.472;2023-08-06T23:36:30;100873.84;;;15.35;nan
58973;BME280;44750;52.040;7.472;2023-08-06T23:41:30;100869.22;;;15.36;nan
58973;BME280;44750;52.040;7.472;2023-08-06T23:46:31;100866.44;;;15.44;nan
58973;BME280;44750;52.040;7.472;2023-08-06T23:51:31;100866.44;;;15.44;nan
58973;BME280;44750;52.040;7.472;2023-08-06T23:56:31;100848.81;;;15.32;nan
